sensor_id;sensor_type;location;lat;lon;timestamp;P1;durP1;ratioP1;P2;durP2;ratioP2
15254;SDS011;7730;49.610;11.136;2023-10-09T00:02:05;8.98;;;3.22;;
15254;SDS011;7730;49.610;11.136;2023-10-09T00:04:35;7.97;;;3.17;;
15254;SDS011;7730;49.610;11.136;2023-10-09T00:07:03;6.75;;;3.05;;
15254;SDS011;7730;49.610;11.136;2023-10-09T00:09:33;9.02;;;3.35;;
15254;SDS011;7730;49.610;11.136;2023-10-09T00:12:11;8.48;;;3.38;;
15254;SDS011;7730;49.610;11.136;2023-10-09T00:14:41;9.45;;;3.38;;
15254;SDS011;7730;49.610;11.136;2023-10-09T00:17:13;8.63;;;3.38;;
15254;SDS011;7730;49.610;11.136;2023-10-09T00:19:44;10.27;;;3.22;;
15254;SDS011;7730;49.610;11.136;2023-10-09T00:22:15;7.75;;;3.53;;
15254;SDS011;7730;49.610;11.136;2023-10-09T00:24:51;15.38;;;4.25;;
15254;SDS011;7730;49.610;11.136;2023-10-09T00:27:36;9.50;;;3.85;;
15254;SDS011;7730;49.610;11.136;2023-10-09T00:30:08;10.02;;;3.70;;
15254;SDS011;7730;49.610;11.136;2023-10-09T00:32:36;9.55;;;3.47;;
15254;SDS011;7730;49.610;11.136;2023-10-09T00:35:10;9.68;;;3.55;;
15254;SDS011;7730;49.610;11.136;2023-10-09T00:37:54;11.65;;;3.83;;
15254;SDS011;7730;49.610;11.136;2023-10-09T00:40:31;9.80;;;3.75;;
15254;SDS011;7730;49.610;11.136;2023-10-09T00:43:10;10.27;;;4.30;;
15254;SDS011;7730;49.610;11.136;2023-10-09T00:45:40;10.10;;;4.00;;
15254;SDS011;7730;49.610;11.136;2023-10-09T00:48:09;10.13;;;3.85;;
15254;SDS011;7730;49.610;11.136;2023-10-09T00:50:39;8.52;;;3.90;;
15254;SDS011;7730;49.610;11.136;2023-10-09T00:53:12;9.30;;;3.78;;
15254;SDS011;7730;49.610;11.136;2023-10-09T00:55:43;10.10;;;3.97;;
15254;SDS011;7730;49.610;11.136;2023-10-09T00:58:16;8.50;;;3.90;;
15254;SDS011;7730;49.610;11.136;2023-10-09T01:00:50;11.35;;;4.05;;
15254;SDS011;7730;49.610;11.136;2023-10-09T01:03:18;7.40;;;3.70;;
15254;SDS011;7730;49.610;11.136;2023-10-09T01:05:46;9.80;;;3.83;;
15254;SDS011;7730;49.610;11.136;2023-10-09T01:08:22;7.57;;;3.75;;
15254;SDS011;7730;49.610;11.136;2023-10-09T01:10:56;9.35;;;3.72;;
15254;SDS011;7730;49.610;11.136;2023-10-09T01:13:33;7.90;;;3.72;;
15254;SDS011;7730;49.610;11.136;2023-10-09T01:16:11;10.02;;;3.85;;
15254;SDS011;7730;49.610;11.136;2023-10-09T01:18:41;9.30;;;3.60;;
15254;SDS011;7730;49.610;11.136;2023-10-09T01:21:09;8.77;;;3.67;;
15254;SDS011;7730;49.610;11.136;2023-10-09T01:23:39;9.13;;;3.53;;
15254;SDS011;7730;49.610;11.136;2023-10-09T01:26:23;11.05;;;3.65;;
15254;SDS011;7730;49.610;11.136;2023-10-09T01:28:51;8.63;;;3.33;;
15254;SDS011;7730;49.610;11.136;2023-10-09T01:31:23;11.00;;;3.80;;
15254;SDS011;7730;49.610;11.136;2023-10-09T01:33:51;9.48;;;3.78;;
15254;SDS011;7730;49.610;11.136;2023-10-09T01:36:24;13.60;;;4.03;;
15254;SDS011;7730;49.610;11.136;2023-10-09T01:38:58;10.80;;;3.75;;
15254;SDS011;7730;49.610;11.136;2023-10-09T01:41:26;10.15;;;3.83;;
15254;SDS011;7730;49.610;11.136;2023-10-09T01:43:53;8.70;;;3.63;;
15254;SDS011;7730;49.610;11.136;2023-10-09T01:46:25;9.23;;;3.72;;
15254;SDS011;7730;49.610;11.136;2023-10-09T01:48:52;11.75;;;4.00;;
15254;SDS011;7730;49.610;11.136;2023-10-09T01:51:19;9.90;;;3.75;;
15254;SDS011;7730;49.610;11.136;2023-10-09T01:53:50;12.20;;;3.70;;
15254;SDS011;7730;49.610;11.136;2023-10-09T01:56:23;9.10;;;3.60;;
15254;SDS011;7730;49.610;11.136;2023-10-09T01:58:50;13.05;;;4.25;;
15254;SDS011;7730;49.610;11.136;2023-10-09T02:01:22;10.55;;;3.70;;
15254;SDS011;7730;49.610;11.136;2023-10-09T02:03:51;11.13;;;3.70;;
15254;SDS011;7730;49.610;11.136;2023-10-09T02:06:19;8.07;;;3.85;;
15254;SDS011;7730;49.610;11.136;2023-10-09T02:08:57;10.55;;;3.92;;
15254;SDS011;7730;49.610;11.136;2023-10-09T02:11:25;10.45;;;3.53;;
15254;SDS011;7730;49.610;11.136;2023-10-09T02:14:06;10.82;;;4.05;;
15254;SDS011;7730;49.610;11.136;2023-10-09T02:16:44;10.25;;;3.45;;
15254;SDS011;7730;49.610;11.136;2023-10-09T02:19:27;11.23;;;3.92;;
15254;SDS011;7730;49.610;11.136;2023-10-09T02:21:58;8.98;;;3.70;;
15254;SDS011;7730;49.610;11.136;2023-10-09T02:24:28;12.38;;;3.90;;
15254;SDS011;7730;49.610;11.136;2023-10-09T02:27:14;13.25;;;4.10;;
15254;SDS011;7730;49.610;11.136;2023-10-09T02:29:45;9.63;;;3.85;;
15254;SDS011;7730;49.610;11.136;2023-10-09T02:32:12;10.10;;;3.60;;
15254;SDS011;7730;49.610;11.136;2023-10-09T02:34:50;8.80;;;3.40;;
15254;SDS011;7730;49.610;11.136;2023-10-09T02:37:19;9.85;;;3.70;;
15254;SDS011;7730;49.610;11.136;2023-10-09T02:39:48;9.98;;;4.35;;
15254;SDS011;7730;49.610;11.136;2023-10-09T02:42:18;9.52;;;4.22;;
15254;SDS011;7730;49.610;11.136;2023-10-09T02:44:48;9.50;;;4.15;;
15254;SDS011;7730;49.610;11.136;2023-10-09T02:47:16;11.07;;;4.20;;
15254;SDS011;7730;49.610;11.136;2023-10-09T02:49:45;11.25;;;4.18;;
15254;SDS011;7730;49.610;11.136;2023-10-09T02:52:13;8.98;;;3.53;;
15254;SDS011;7730;49.610;11.136;2023-10-09T02:54:44;10.68;;;3.90;;
15254;SDS011;7730;49.610;11.136;2023-10-09T02:57:12;10.68;;;3.97;;
15254;SDS011;7730;49.610;11.136;2023-10-09T02:59:48;10.52;;;4.35;;
15254;SDS011;7730;49.610;11.136;2023-10-09T03:02:16;9.63;;;3.90;;
15254;SDS011;7730;49.610;11.136;2023-10-09T03:04:44;10.93;;;4.00;;
15254;SDS011;7730;49.610;11.136;2023-10-09T03:07:11;10.85;;;4.15;;
15254;SDS011;7730;49.610;11.136;2023-10-09T03:09:39;11.15;;;4.05;;
15254;SDS011;7730;49.610;11.136;2023-10-09T03:12:06;10.70;;;4.00;;
15254;SDS011;7730;49.610;11.136;2023-10-09T03:14:38;10.85;;;3.95;;
15254;SDS011;7730;49.610;11.136;2023-10-09T03:17:07;9.05;;;3.80;;
15254;SDS011;7730;49.610;11.136;2023-10-09T03:19:36;11.75;;;3.80;;
15254;SDS011;7730;49.610;11.136;2023-10-09T03:22:03;9.02;;;3.45;;
15254;SDS011;7730;49.610;11.136;2023-10-09T03:24:34;10.38;;;3.97;;
15254;SDS011;7730;49.610;11.136;2023-10-09T03:27:01;10.90;;;4.45;;
15254;SDS011;7730;49.610;11.136;2023-10-09T03:29:28;9.80;;;3.90;;
15254;SDS011;7730;49.610;11.136;2023-10-09T03:31:58;12.82;;;4.50;;
15254;SDS011;7730;49.610;11.136;2023-10-09T03:34:26;11.32;;;5.07;;
15254;SDS011;7730;49.610;11.136;2023-10-09T03:36:56;10.65;;;4.63;;
15254;SDS011;7730;49.610;11.136;2023-10-09T03:39:29;12.30;;;5.10;;
15254;SDS011;7730;49.610;11.136;2023-10-09T03:42:06;12.50;;;4.85;;
15254;SDS011;7730;49.610;11.136;2023-10-09T03:44:44;12.60;;;5.30;;
15254;SDS011;7730;49.610;11.136;2023-10-09T03:47:18;9.98;;;4.70;;
15254;SDS011;7730;49.610;11.136;2023-10-09T03:49:50;11.52;;;4.93;;
15254;SDS011;7730;49.610;11.136;2023-10-09T03:52:18;13.18;;;4.50;;
15254;SDS011;7730;49.610;11.136;2023-10-09T03:54:45;11.45;;;4.82;;
15254;SDS011;7730;49.610;11.136;2023-10-09T03:57:12;10.65;;;4.50;;
15254;SDS011;7730;49.610;11.136;2023-10-09T03:59:43;11.50;;;5.05;;
15254;SDS011;7730;49.610;11.136;2023-10-09T04:02:12;14.75;;;5.50;;
15254;SDS011;7730;49.610;11.136;2023-10-09T04:04:39;11.95;;;5.45;;
15254;SDS011;7730;49.610;11.136;2023-10-09T04:07:12;12.55;;;5.50;;
15254;SDS011;7730;49.610;11.136;2023-10-09T04:12:17;11.98;;;5.18;;
15254;SDS011;7730;49.610;11.136;2023-10-09T04:14:50;13.05;;;5.28;;
15254;SDS011;7730;49.610;11.136;2023-10-09T04:17:20;12.18;;;5.45;;
15254;SDS011;7730;49.610;11.136;2023-10-09T04:25:12;12.23;;;4.85;;
15254;SDS011;7730;49.610;11.136;2023-10-09T04:27:45;12.02;;;4.97;;
15254;SDS011;7730;49.610;11.136;2023-10-09T04:30:12;10.77;;;4.65;;
15254;SDS011;7730;49.610;11.136;2023-10-09T04:32:40;11.80;;;4.57;;
15254;SDS011;7730;49.610;11.136;2023-10-09T04:35:10;15.05;;;4.90;;
15254;SDS011;7730;49.610;11.136;2023-10-09T04:37:48;10.65;;;4.90;;
15254;SDS011;7730;49.610;11.136;2023-10-09T04:48:14;11.85;;;4.97;;
15254;SDS011;7730;49.610;11.136;2023-10-09T04:50:57;12.30;;;4.53;;
15254;SDS011;7730;49.610;11.136;2023-10-09T04:53:45;10.63;;;4.50;;
15254;SDS011;7730;49.610;11.136;2023-10-09T04:56:25;10.90;;;4.50;;
15254;SDS011;7730;49.610;11.136;2023-10-09T04:58:57;10.52;;;4.40;;
15254;SDS011;7730;49.610;11.136;2023-10-09T05:01:32;10.77;;;4.50;;
15254;SDS011;7730;49.610;11.136;2023-10-09T05:04:10;10.70;;;4.50;;
15254;SDS011;7730;49.610;11.136;2023-10-09T05:17:31;11.52;;;4.60;;
15254;SDS011;7730;49.610;11.136;2023-10-09T05:19:59;11.75;;;4.40;;
15254;SDS011;7730;49.610;11.136;2023-10-09T05:22:44;11.73;;;4.40;;
15254;SDS011;7730;49.610;11.136;2023-10-09T05:25:22;9.43;;;3.92;;
15254;SDS011;7730;49.610;11.136;2023-10-09T05:28:04;11.65;;;4.43;;
15254;SDS011;7730;49.610;11.136;2023-10-09T05:30:45;12.00;;;4.63;;
15254;SDS011;7730;49.610;11.136;2023-10-09T05:33:21;13.88;;;4.78;;
15254;SDS011;7730;49.610;11.136;2023-10-09T05:35:55;11.40;;;4.60;;
15254;SDS011;7730;49.610;11.136;2023-10-09T05:41:18;15.68;;;5.90;;
15254;SDS011;7730;49.610;11.136;2023-10-09T05:44:13;14.50;;;6.25;;
15254;SDS011;7730;49.610;11.136;2023-10-09T05:47:09;13.45;;;5.88;;
15254;SDS011;7730;49.610;11.136;2023-10-09T05:50:01;13.88;;;5.35;;
15254;SDS011;7730;49.610;11.136;2023-10-09T05:52:43;12.43;;;4.93;;
15254;SDS011;7730;49.610;11.136;2023-10-09T05:55:32;11.57;;;4.75;;
15254;SDS011;7730;49.610;11.136;2023-10-09T05:58:32;11.45;;;4.90;;
15254;SDS011;7730;49.610;11.136;2023-10-09T06:01:16;13.13;;;4.88;;
15254;SDS011;7730;49.610;11.136;2023-10-09T06:04:01;12.20;;;5.25;;
15254;SDS011;7730;49.610;11.136;2023-10-09T06:06:41;11.75;;;5.10;;
15254;SDS011;7730;49.610;11.136;2023-10-09T06:09:10;13.68;;;5.15;;
15254;SDS011;7730;49.610;11.136;2023-10-09T06:11:51;13.88;;;5.95;;
15254;SDS011;7730;49.610;11.136;2023-10-09T06:14:41;17.40;;;7.70;;
15254;SDS011;7730;49.610;11.136;2023-10-09T06:17:23;16.92;;;7.60;;
15254;SDS011;7730;49.610;11.136;2023-10-09T06:20:08;17.00;;;7.32;;
15254;SDS011;7730;49.610;11.136;2023-10-09T06:22:57;16.63;;;6.43;;
15254;SDS011;7730;49.610;11.136;2023-10-09T06:25:40;16.23;;;6.38;;
15254;SDS011;7730;49.610;11.136;2023-10-09T06:28:16;15.93;;;6.72;;
15254;SDS011;7730;49.610;11.136;2023-10-09T06:30:43;15.82;;;6.50;;
15254;SDS011;7730;49.610;11.136;2023-10-09T06:33:12;16.58;;;6.50;;
15254;SDS011;7730;49.610;11.136;2023-10-09T06:35:45;15.68;;;6.70;;
15254;SDS011;7730;49.610;11.136;2023-10-09T06:38:20;17.80;;;7.00;;
15254;SDS011;7730;49.610;11.136;2023-10-09T06:40:48;17.25;;;6.68;;
15254;SDS011;7730;49.610;11.136;2023-10-09T06:43:34;16.48;;;6.75;;
15254;SDS011;7730;49.610;11.136;2023-10-09T06:46:13;16.88;;;6.93;;
15254;SDS011;7730;49.610;11.136;2023-10-09T06:48:59;20.58;;;6.90;;
15254;SDS011;7730;49.610;11.136;2023-10-09T06:51:46;19.55;;;7.18;;
15254;SDS011;7730;49.610;11.136;2023-10-09T06:54:21;19.95;;;6.35;;
15254;SDS011;7730;49.610;11.136;2023-10-09T06:57:02;14.25;;;5.13;;
15254;SDS011;7730;49.610;11.136;2023-10-09T06:59:55;13.85;;;5.47;;
15254;SDS011;7730;49.610;11.136;2023-10-09T07:03:04;13.60;;;5.43;;
15254;SDS011;7730;49.610;11.136;2023-10-09T07:05:36;14.85;;;5.90;;
15254;SDS011;7730;49.610;11.136;2023-10-09T07:08:24;17.73;;;6.45;;
15254;SDS011;7730;49.610;11.136;2023-10-09T07:11:03;17.95;;;7.57;;
15254;SDS011;7730;49.610;11.136;2023-10-09T07:14:10;14.43;;;6.07;;
15254;SDS011;7730;49.610;11.136;2023-10-09T07:16:59;17.45;;;7.13;;
15254;SDS011;7730;49.610;11.136;2023-10-09T07:19:25;16.38;;;6.85;;
15254;SDS011;7730;49.610;11.136;2023-10-09T07:22:00;15.65;;;7.32;;
15254;SDS011;7730;49.610;11.136;2023-10-09T07:24:28;14.35;;;6.93;;
15254;SDS011;7730;49.610;11.136;2023-10-09T07:27:04;16.23;;;6.07;;
15254;SDS011;7730;49.610;11.136;2023-10-09T07:29:36;12.80;;;5.15;;
15254;SDS011;7730;49.610;11.136;2023-10-09T07:32:12;12.65;;;5.15;;
15254;SDS011;7730;49.610;11.136;2023-10-09T07:34:45;16.30;;;5.90;;
15254;SDS011;7730;49.610;11.136;2023-10-09T07:37:19;14.45;;;6.10;;
15254;SDS011;7730;49.610;11.136;2023-10-09T07:39:48;13.68;;;5.20;;
15254;SDS011;7730;49.610;11.136;2023-10-09T07:42:23;13.65;;;5.28;;
15254;SDS011;7730;49.610;11.136;2023-10-09T07:45:09;13.40;;;4.95;;
15254;SDS011;7730;49.610;11.136;2023-10-09T07:47:58;14.18;;;6.88;;
15254;SDS011;7730;49.610;11.136;2023-10-09T07:50:39;14.35;;;6.40;;
15254;SDS011;7730;49.610;11.136;2023-10-09T07:53:14;13.45;;;6.10;;
15254;SDS011;7730;49.610;11.136;2023-10-09T07:55:44;14.98;;;6.85;;
15254;SDS011;7730;49.610;11.136;2023-10-09T07:58:20;14.68;;;6.43;;
15254;SDS011;7730;49.610;11.136;2023-10-09T08:00:50;14.98;;;5.63;;
15254;SDS011;7730;49.610;11.136;2023-10-09T08:14:10;15.15;;;5.38;;
15254;SDS011;7730;49.610;11.136;2023-10-09T08:17:08;12.98;;;5.35;;
15254;SDS011;7730;49.610;11.136;2023-10-09T08:19:46;13.23;;;5.30;;
15254;SDS011;7730;49.610;11.136;2023-10-09T08:22:24;14.43;;;5.80;;
15254;SDS011;7730;49.610;11.136;2023-10-09T08:25:08;15.75;;;5.10;;
15254;SDS011;7730;49.610;11.136;2023-10-09T08:27:51;14.57;;;5.20;;
15254;SDS011;7730;49.610;11.136;2023-10-09T08:32:59;14.32;;;5.05;;
15254;SDS011;7730;49.610;11.136;2023-10-09T08:35:52;18.38;;;5.90;;
15254;SDS011;7730;49.610;11.136;2023-10-09T08:38:27;13.82;;;5.00;;
15254;SDS011;7730;49.610;11.136;2023-10-09T08:41:05;13.48;;;4.97;;
15254;SDS011;7730;49.610;11.136;2023-10-09T08:43:42;15.07;;;4.82;;
15254;SDS011;7730;49.610;11.136;2023-10-09T08:46:12;14.95;;;4.72;;
15254;SDS011;7730;49.610;11.136;2023-10-09T08:48:44;13.50;;;4.57;;
15254;SDS011;7730;49.610;11.136;2023-10-09T08:51:14;13.55;;;4.50;;
15254;SDS011;7730;49.610;11.136;2023-10-09T08:53:42;13.68;;;5.10;;
15254;SDS011;7730;49.610;11.136;2023-10-09T08:56:12;14.80;;;4.68;;
15254;SDS011;7730;49.610;11.136;2023-10-09T08:58:47;16.08;;;4.80;;
15254;SDS011;7730;49.610;11.136;2023-10-09T09:01:16;13.07;;;4.60;;
15254;SDS011;7730;49.610;11.136;2023-10-09T09:03:48;13.32;;;4.82;;
15254;SDS011;7730;49.610;11.136;2023-10-09T09:06:17;13.70;;;4.70;;
15254;SDS011;7730;49.610;11.136;2023-10-09T09:08:44;14.70;;;5.45;;
15254;SDS011;7730;49.610;11.136;2023-10-09T09:11:14;14.40;;;5.53;;
15254;SDS011;7730;49.610;11.136;2023-10-09T09:13:42;18.15;;;5.88;;
15254;SDS011;7730;49.610;11.136;2023-10-09T09:16:17;15.55;;;5.05;;
15254;SDS011;7730;49.610;11.136;2023-10-09T09:21:35;14.15;;;4.75;;
15254;SDS011;7730;49.610;11.136;2023-10-09T09:24:06;15.82;;;5.10;;
15254;SDS011;7730;49.610;11.136;2023-10-09T09:26:41;16.45;;;5.05;;
15254;SDS011;7730;49.610;11.136;2023-10-09T09:29:12;15.52;;;5.20;;
15254;SDS011;7730;49.610;11.136;2023-10-09T09:31:51;18.40;;;5.90;;
15254;SDS011;7730;49.610;11.136;2023-10-09T09:34:19;16.60;;;5.90;;
15254;SDS011;7730;49.610;11.136;2023-10-09T09:36:53;26.27;;;7.38;;
15254;SDS011;7730;49.610;11.136;2023-10-09T09:42:05;19.33;;;6.68;;
15254;SDS011;7730;49.610;11.136;2023-10-09T09:44:38;21.60;;;6.13;;
15254;SDS011;7730;49.610;11.136;2023-10-09T09:47:09;18.65;;;5.93;;
15254;SDS011;7730;49.610;11.136;2023-10-09T09:49:42;18.05;;;5.63;;
15254;SDS011;7730;49.610;11.136;2023-10-09T09:52:10;28.92;;;7.03;;
15254;SDS011;7730;49.610;11.136;2023-10-09T09:54:37;20.65;;;6.30;;
15254;SDS011;7730;49.610;11.136;2023-10-09T09:57:05;15.95;;;6.03;;
15254;SDS011;7730;49.610;11.136;2023-10-09T10:07:32;15.00;;;5.25;;
15254;SDS011;7730;49.610;11.136;2023-10-09T10:12:50;15.98;;;5.30;;
15254;SDS011;7730;49.610;11.136;2023-10-09T10:21:10;13.68;;;5.45;;
15254;SDS011;7730;49.610;11.136;2023-10-09T10:23:44;20.23;;;5.75;;
15254;SDS011;7730;49.610;11.136;2023-10-09T10:26:18;15.27;;;5.35;;
15254;SDS011;7730;49.610;11.136;2023-10-09T10:34:06;14.60;;;4.90;;
15254;SDS011;7730;49.610;11.136;2023-10-09T10:36:36;15.25;;;5.45;;
15254;SDS011;7730;49.610;11.136;2023-10-09T10:39:11;13.20;;;4.88;;
15254;SDS011;7730;49.610;11.136;2023-10-09T10:41:52;14.85;;;5.18;;
15254;SDS011;7730;49.610;11.136;2023-10-09T10:44:27;13.35;;;4.78;;
15254;SDS011;7730;49.610;11.136;2023-10-09T10:47:02;15.43;;;4.95;;
15254;SDS011;7730;49.610;11.136;2023-10-09T10:49:30;13.32;;;4.50;;
15254;SDS011;7730;49.610;11.136;2023-10-09T10:52:07;13.02;;;4.40;;
15254;SDS011;7730;49.610;11.136;2023-10-09T10:54:48;13.20;;;4.45;;
15254;SDS011;7730;49.610;11.136;2023-10-09T10:57:29;15.45;;;5.20;;
15254;SDS011;7730;49.610;11.136;2023-10-09T11:00:16;14.65;;;4.78;;
15254;SDS011;7730;49.610;11.136;2023-10-09T11:02:57;16.65;;;4.80;;
15254;SDS011;7730;49.610;11.136;2023-10-09T11:05:41;15.27;;;5.10;;
15254;SDS011;7730;49.610;11.136;2023-10-09T11:11:12;19.05;;;5.45;;
15254;SDS011;7730;49.610;11.136;2023-10-09T11:13:44;14.77;;;5.30;;
15254;SDS011;7730;49.610;11.136;2023-10-09T11:16:21;17.50;;;6.05;;
15254;SDS011;7730;49.610;11.136;2023-10-09T11:19:07;18.38;;;5.65;;
15254;SDS011;7730;49.610;11.136;2023-10-09T11:21:48;16.48;;;5.13;;
15254;SDS011;7730;49.610;11.136;2023-10-09T11:24:23;15.75;;;5.35;;
15254;SDS011;7730;49.610;11.136;2023-10-09T11:26:51;15.38;;;5.78;;
15254;SDS011;7730;49.610;11.136;2023-10-09T11:29:31;15.80;;;5.88;;
15254;SDS011;7730;49.610;11.136;2023-10-09T11:32:14;15.68;;;5.65;;
15254;SDS011;7730;49.610;11.136;2023-10-09T11:34:49;17.58;;;5.88;;
15254;SDS011;7730;49.610;11.136;2023-10-09T11:37:19;15.13;;;5.50;;
15254;SDS011;7730;49.610;11.136;2023-10-09T11:40:04;14.38;;;5.20;;
15254;SDS011;7730;49.610;11.136;2023-10-09T11:42:49;15.35;;;5.28;;
15254;SDS011;7730;49.610;11.136;2023-10-09T11:45:22;13.77;;;5.43;;
15254;SDS011;7730;49.610;11.136;2023-10-09T11:47:54;14.35;;;5.30;;
15254;SDS011;7730;49.610;11.136;2023-10-09T11:53:09;13.75;;;5.47;;
15254;SDS011;7730;49.610;11.136;2023-10-09T11:55:58;14.48;;;5.20;;
15254;SDS011;7730;49.610;11.136;2023-10-09T11:58:27;16.83;;;5.45;;
15254;SDS011;7730;49.610;11.136;2023-10-09T12:00:54;13.15;;;4.72;;
15254;SDS011;7730;49.610;11.136;2023-10-09T12:03:24;15.90;;;5.28;;
15254;SDS011;7730;49.610;11.136;2023-10-09T12:05:55;16.95;;;5.30;;
15254;SDS011;7730;49.610;11.136;2023-10-09T12:11:07;20.27;;;5.68;;
15254;SDS011;7730;49.610;11.136;2023-10-09T12:13:39;16.00;;;5.60;;
15254;SDS011;7730;49.610;11.136;2023-10-09T12:16:08;16.10;;;4.63;;
15254;SDS011;7730;49.610;11.136;2023-10-09T12:23:54;14.32;;;4.80;;
15254;SDS011;7730;49.610;11.136;2023-10-09T12:26:22;15.93;;;4.97;;
15254;SDS011;7730;49.610;11.136;2023-10-09T12:31:29;14.82;;;5.05;;
15254;SDS011;7730;49.610;11.136;2023-10-09T12:34:00;13.68;;;4.75;;
15254;SDS011;7730;49.610;11.136;2023-10-09T12:36:28;15.77;;;4.70;;
15254;SDS011;7730;49.610;11.136;2023-10-09T12:38:55;13.20;;;4.22;;
15254;SDS011;7730;49.610;11.136;2023-10-09T12:41:23;13.07;;;4.38;;
15254;SDS011;7730;49.610;11.136;2023-10-09T12:43:58;15.05;;;4.28;;
15254;SDS011;7730;49.610;11.136;2023-10-09T12:46:26;13.55;;;4.50;;
15254;SDS011;7730;49.610;11.136;2023-10-09T12:49:00;15.50;;;4.90;;
15254;SDS011;7730;49.610;11.136;2023-10-09T12:51:27;14.05;;;4.07;;
15254;SDS011;7730;49.610;11.136;2023-10-09T12:53:56;12.07;;;3.83;;
15254;SDS011;7730;49.610;11.136;2023-10-09T12:56:23;13.68;;;3.80;;
15254;SDS011;7730;49.610;11.136;2023-10-09T12:58:57;14.07;;;4.00;;
15254;SDS011;7730;49.610;11.136;2023-10-09T13:01:26;13.73;;;4.20;;
15254;SDS011;7730;49.610;11.136;2023-10-09T13:03:57;13.88;;;3.92;;
15254;SDS011;7730;49.610;11.136;2023-10-09T13:06:30;14.10;;;3.78;;
15254;SDS011;7730;49.610;11.136;2023-10-09T13:08:58;13.50;;;4.72;;
15254;SDS011;7730;49.610;11.136;2023-10-09T13:11:32;15.00;;;4.50;;
15254;SDS011;7730;49.610;11.136;2023-10-09T13:14:02;13.60;;;4.32;;
15254;SDS011;7730;49.610;11.136;2023-10-09T13:16:36;14.57;;;4.10;;
15254;SDS011;7730;49.610;11.136;2023-10-09T13:21:48;14.82;;;3.97;;
15254;SDS011;7730;49.610;11.136;2023-10-09T13:24:17;14.15;;;4.22;;
15254;SDS011;7730;49.610;11.136;2023-10-09T13:26:49;12.40;;;4.00;;
15254;SDS011;7730;49.610;11.136;2023-10-09T13:29:18;13.80;;;3.85;;
15254;SDS011;7730;49.610;11.136;2023-10-09T13:31:47;10.85;;;3.40;;
15254;SDS011;7730;49.610;11.136;2023-10-09T13:34:17;15.98;;;3.83;;
15254;SDS011;7730;49.610;11.136;2023-10-09T13:36:45;14.27;;;4.00;;
15254;SDS011;7730;49.610;11.136;2023-10-09T13:41:55;10.90;;;3.80;;
15254;SDS011;7730;49.610;11.136;2023-10-09T13:44:25;14.07;;;3.53;;
15254;SDS011;7730;49.610;11.136;2023-10-09T13:46:53;14.55;;;4.00;;
15254;SDS011;7730;49.610;11.136;2023-10-09T13:57:10;12.23;;;3.78;;
15254;SDS011;7730;49.610;11.136;2023-10-09T13:59:38;14.07;;;3.78;;
15254;SDS011;7730;49.610;11.136;2023-10-09T14:02:14;14.85;;;3.80;;
15254;SDS011;7730;49.610;11.136;2023-10-09T14:04:46;13.20;;;3.63;;
15254;SDS011;7730;49.610;11.136;2023-10-09T14:07:15;13.18;;;3.80;;
15254;SDS011;7730;49.610;11.136;2023-10-09T14:09:45;12.57;;;3.95;;
15254;SDS011;7730;49.610;11.136;2023-10-09T14:12:22;12.80;;;3.80;;
15254;SDS011;7730;49.610;11.136;2023-10-09T14:14:54;15.63;;;4.55;;
15254;SDS011;7730;49.610;11.136;2023-10-09T14:17:22;13.02;;;4.30;;
15254;SDS011;7730;49.610;11.136;2023-10-09T14:19:50;14.82;;;3.90;;
15254;SDS011;7730;49.610;11.136;2023-10-09T14:22:24;14.07;;;4.57;;
15254;SDS011;7730;49.610;11.136;2023-10-09T14:24:51;13.10;;;3.97;;
15254;SDS011;7730;49.610;11.136;2023-10-09T14:27:20;14.88;;;4.45;;
15254;SDS011;7730;49.610;11.136;2023-10-09T14:32:31;14.82;;;4.38;;
15254;SDS011;7730;49.610;11.136;2023-10-09T14:35:10;12.95;;;3.65;;
15254;SDS011;7730;49.610;11.136;2023-10-09T14:37:39;13.18;;;4.13;;
15254;SDS011;7730;49.610;11.136;2023-10-09T14:43:02;13.10;;;3.67;;
15254;SDS011;7730;49.610;11.136;2023-10-09T14:45:36;10.80;;;3.50;;
15254;SDS011;7730;49.610;11.136;2023-10-09T14:48:05;13.57;;;3.90;;
15254;SDS011;7730;49.610;11.136;2023-10-09T14:50:35;15.50;;;4.50;;
15254;SDS011;7730;49.610;11.136;2023-10-09T14:53:07;15.20;;;4.35;;
15254;SDS011;7730;49.610;11.136;2023-10-09T14:55:37;14.05;;;4.30;;
15254;SDS011;7730;49.610;11.136;2023-10-09T14:58:07;13.65;;;3.75;;
15254;SDS011;7730;49.610;11.136;2023-10-09T15:00:39;14.35;;;4.10;;
15254;SDS011;7730;49.610;11.136;2023-10-09T15:03:13;13.57;;;4.50;;
15254;SDS011;7730;49.610;11.136;2023-10-09T15:05:44;13.93;;;4.07;;
15254;SDS011;7730;49.610;11.136;2023-10-09T15:10:48;13.77;;;4.60;;
15254;SDS011;7730;49.610;11.136;2023-10-09T15:13:16;14.65;;;4.43;;
15254;SDS011;7730;49.610;11.136;2023-10-09T15:15:44;14.88;;;4.30;;
15254;SDS011;7730;49.610;11.136;2023-10-09T15:18:17;15.43;;;4.30;;
15254;SDS011;7730;49.610;11.136;2023-10-09T15:20:46;13.38;;;3.75;;
15254;SDS011;7730;49.610;11.136;2023-10-09T15:23:15;15.50;;;4.25;;
15254;SDS011;7730;49.610;11.136;2023-10-09T15:25:42;13.77;;;4.53;;
15254;SDS011;7730;49.610;11.136;2023-10-09T15:30:43;12.70;;;4.68;;
15254;SDS011;7730;49.610;11.136;2023-10-09T15:33:13;13.73;;;4.25;;
15254;SDS011;7730;49.610;11.136;2023-10-09T15:35:43;15.35;;;4.93;;
15254;SDS011;7730;49.610;11.136;2023-10-09T15:43:24;14.65;;;4.50;;
15254;SDS011;7730;49.610;11.136;2023-10-09T15:45:53;14.27;;;4.68;;
15254;SDS011;7730;49.610;11.136;2023-10-09T15:48:24;12.98;;;4.22;;
15254;SDS011;7730;49.610;11.136;2023-10-09T15:50:53;12.35;;;4.07;;
15254;SDS011;7730;49.610;11.136;2023-10-09T15:53:22;13.77;;;4.43;;
15254;SDS011;7730;49.610;11.136;2023-10-09T15:55:49;13.95;;;4.40;;
15254;SDS011;7730;49.610;11.136;2023-10-09T16:01:16;12.05;;;3.85;;
15254;SDS011;7730;49.610;11.136;2023-10-09T16:03:45;15.20;;;4.75;;
15254;SDS011;7730;49.610;11.136;2023-10-09T16:06:14;13.23;;;4.70;;
15254;SDS011;7730;49.610;11.136;2023-10-09T16:14:15;10.13;;;4.05;;
15254;SDS011;7730;49.610;11.136;2023-10-09T16:16:42;12.13;;;4.70;;
15254;SDS011;7730;49.610;11.136;2023-10-09T16:21:49;13.02;;;4.60;;
15254;SDS011;7730;49.610;11.136;2023-10-09T16:24:17;13.30;;;4.88;;
15254;SDS011;7730;49.610;11.136;2023-10-09T16:26:46;13.30;;;4.70;;
15254;SDS011;7730;49.610;11.136;2023-10-09T16:31:50;12.15;;;4.40;;
15254;SDS011;7730;49.610;11.136;2023-10-09T16:34:19;15.05;;;5.00;;
15254;SDS011;7730;49.610;11.136;2023-10-09T16:36:52;15.45;;;4.82;;
15254;SDS011;7730;49.610;11.136;2023-10-09T16:41:58;13.70;;;5.28;;
15254;SDS011;7730;49.610;11.136;2023-10-09T16:44:26;13.68;;;4.95;;
15254;SDS011;7730;49.610;11.136;2023-10-09T16:46:55;14.15;;;5.35;;
15254;SDS011;7730;49.610;11.136;2023-10-09T16:49:29;13.45;;;5.35;;
15254;SDS011;7730;49.610;11.136;2023-10-09T16:51:58;13.13;;;5.28;;
15254;SDS011;7730;49.610;11.136;2023-10-09T16:54:27;14.75;;;5.40;;
15254;SDS011;7730;49.610;11.136;2023-10-09T16:56:55;14.20;;;5.60;;
15254;SDS011;7730;49.610;11.136;2023-10-09T17:04:36;18.13;;;7.63;;
15254;SDS011;7730;49.610;11.136;2023-10-09T17:07:08;17.33;;;9.73;;
15254;SDS011;7730;49.610;11.136;2023-10-09T17:12:15;15.95;;;7.95;;
15254;SDS011;7730;49.610;11.136;2023-10-09T17:14:43;16.30;;;7.55;;
15254;SDS011;7730;49.610;11.136;2023-10-09T17:17:11;16.23;;;5.35;;
15254;SDS011;7730;49.610;11.136;2023-10-09T17:22:13;13.25;;;4.80;;
15254;SDS011;7730;49.610;11.136;2023-10-09T17:24:42;14.80;;;4.90;;
15254;SDS011;7730;49.610;11.136;2023-10-09T17:27:11;13.60;;;4.53;;
15254;SDS011;7730;49.610;11.136;2023-10-09T17:29:42;13.48;;;5.25;;
15254;SDS011;7730;49.610;11.136;2023-10-09T17:32:11;14.05;;;5.32;;
15254;SDS011;7730;49.610;11.136;2023-10-09T17:34:39;12.40;;;4.90;;